This is the latest recevied weather packets stored in our database for station/object OE5ERN-10. If no packets are shown the sender has not sent any weather packets the latest 10 day(s).
| Time | Temp. | Humidity | Pressure | Rain* | Wind** | Luminosity | Snow |
|---|---|---|---|---|---|---|---|
| 1777884035 | 38.89° C | 23% | 1018.9 hPa | 0 mm | - | - | - |
| 1777883135 | 38.89° C | 23% | 1019 hPa | 0 mm | - | - | - |
| 1777882235 | 37.78° C | 23% | 1019 hPa | 0 mm | - | - | - |
| 1777881335 | 36.11° C | 25% | 1019.1 hPa | 0 mm | - | - | - |
| 1777880435 | 35.56° C | 26% | 1018.8 hPa | 0 mm | - | - | - |
| 1777879535 | 32.78° C | 28% | 1018.9 hPa | 0 mm | - | - | - |
| 1777878635 | 31.67° C | 29% | 1018.9 hPa | 0 mm | - | - | - |
| 1777877735 | 28.89° C | 34% | 1018.8 hPa | 0 mm | - | - | - |
| 1777876835 | 27.22° C | 36% | 1018.8 hPa | 0 mm | - | - | - |
| 1777875935 | 27.78° C | 35% | 1018.7 hPa | 0 mm | - | - | - |
| 1777875035 | 26.67° C | 39% | 1018.7 hPa | 0 mm | - | - | - |
| 1777874135 | 24.44° C | 45% | 1018.5 hPa | 0 mm | - | - | - |
| 1777873235 | 21.11° C | 53% | 1018.5 hPa | 0 mm | - | - | - |
| 1777872335 | 16.67° C | 62% | 1018.4 hPa | 0 mm | - | - | - |
| 1777871435 | 15° C | 65% | 1018.4 hPa | 0 mm | - | - | - |
| 1777870535 | 13.33° C | 69% | 1018.3 hPa | 0 mm | - | - | - |
| 1777869635 | 12.22° C | 71% | 1018.1 hPa | 0 mm | - | - | - |
| 1777868735 | 11.11° C | 71% | 1018 hPa | 0 mm | - | - | - |
| 1777867835 | 10.56° C | 71% | 1017.9 hPa | 0 mm | - | - | - |
| 1777866935 | 10.56° C | 70% | 1017.8 hPa | 0 mm | - | - | - |
| 1777866035 | 10.56° C | 69% | 1017.9 hPa | 0 mm | - | - | - |
| 1777865135 | 11.11° C | 67% | 1017.8 hPa | 0 mm | - | - | - |
| 1777864235 | 11.67° C | 67% | 1017.6 hPa | 0 mm | - | - | - |
| 1777863335 | 12.22° C | 65% | 1017.4 hPa | 0 mm | - | - | - |
| 1777862435 | 12.22° C | 64% | 1017.5 hPa | 0 mm | - | - | - |
* Rain latest hour (hover to see other rain measurements)
** Current wind speed in m/s (hover to see current wind gust speed)